createdAt,value
2022-11-06T00:02:01.601Z,2.14
2022-11-06T00:04:30.162Z,2.14
2022-11-06T00:06:57.768Z,2.12
2022-11-06T00:09:25.317Z,2.12
2022-11-06T00:11:53.219Z,2.10
2022-11-06T00:14:20.891Z,2.19
2022-11-06T00:16:48.556Z,2.11
2022-11-06T00:19:16.851Z,2.10
2022-11-06T00:21:44.999Z,2.08
2022-11-06T00:24:14.492Z,2.09
2022-11-06T00:26:42.632Z,2.10
2022-11-06T00:29:14.385Z,2.12
2022-11-06T00:31:42.167Z,2.10
2022-11-06T00:34:10.805Z,2.08
2022-11-06T00:36:38.624Z,2.03
2022-11-06T00:39:06.598Z,2.01
2022-11-06T00:41:34.294Z,2.05
2022-11-06T00:44:02.971Z,2.13
2022-11-06T00:46:31.235Z,2.06
2022-11-06T00:48:58.718Z,2.06
2022-11-06T00:51:39.440Z,2.09
2022-11-06T00:54:11.013Z,2.06
2022-11-06T00:56:38.567Z,1.98
2022-11-06T00:59:08.121Z,1.91
2022-11-06T01:01:38.959Z,1.79
2022-11-06T01:04:11.919Z,1.74
2022-11-06T01:06:43.139Z,1.79
2022-11-06T01:09:13.653Z,1.82
2022-11-06T01:12:11.123Z,1.81
2022-11-06T01:14:31.537Z,1.85
2022-11-06T01:16:58.960Z,1.85
2022-11-06T01:19:26.561Z,1.85
2022-11-06T01:21:54.497Z,1.85
2022-11-06T01:24:25.437Z,1.88
2022-11-06T01:27:24.459Z,1.75
2022-11-06T01:29:41.287Z,1.60
2022-11-06T01:32:09.095Z,1.62
2022-11-06T01:34:36.597Z,1.61
2022-11-06T01:37:04.377Z,1.62
2022-11-06T01:39:32.347Z,1.67
2022-11-06T01:41:59.869Z,1.58
2022-11-06T01:44:36.078Z,1.65
2022-11-06T01:47:07.491Z,1.55
2022-11-06T01:49:38.399Z,1.57
2022-11-06T01:52:09.140Z,1.60
2022-11-06T01:54:40.295Z,1.74
2022-11-06T01:57:08.586Z,1.66
2022-11-06T01:59:40.187Z,1.64
2022-11-06T02:02:07.897Z,1.63
2022-11-06T02:04:42.916Z,1.68
2022-11-06T02:07:11.119Z,1.66
2022-11-06T02:09:39.140Z,1.60
2022-11-06T02:12:12.331Z,1.66
2022-11-06T02:15:08.468Z,1.67
2022-11-06T02:17:54.073Z,1.66
2022-11-06T02:20:32.443Z,1.67
2022-11-06T02:23:25.256Z,1.72
2022-11-06T02:26:11.122Z,1.63
2022-11-06T02:28:53.362Z,1.67
2022-11-06T02:31:26.120Z,1.62
2022-11-06T02:34:00.128Z,1.64
2022-11-06T02:36:34.986Z,1.63
2022-11-06T02:39:10.192Z,1.63
2022-11-06T02:41:42.459Z,1.66
2022-11-06T02:44:15.236Z,1.72
2022-11-06T02:46:51.609Z,1.79
2022-11-06T02:49:31.773Z,1.73
2022-11-06T02:52:06.815Z,1.71
2022-11-06T02:54:38.439Z,1.76
2022-11-06T02:57:10.624Z,1.73
2022-11-06T03:00:04.550Z,1.76
2022-11-06T03:03:01.272Z,1.75
2022-11-06T03:05:36.569Z,1.67
2022-11-06T03:08:34.553Z,1.63
2022-11-06T03:11:12.404Z,1.62
2022-11-06T03:13:51.423Z,1.46
2022-11-06T03:16:47.884Z,1.46
2022-11-06T03:19:15.317Z,1.32
2022-11-06T03:21:58.079Z,1.28
2022-11-06T03:24:34.952Z,1.24
2022-11-06T03:27:10.733Z,1.25
2022-11-06T03:29:49.665Z,1.23
2022-11-06T03:32:39.599Z,1.25
2022-11-06T03:35:15.454Z,1.19
2022-11-06T03:37:51.207Z,1.19
2022-11-06T03:40:22.248Z,1.10
2022-11-06T03:42:55.116Z,1.20
2022-11-06T03:45:26.829Z,1.10
2022-11-06T03:48:05.087Z,1.07
2022-11-06T03:50:37.701Z,0.91
2022-11-06T03:53:13.260Z,0.88
2022-11-06T03:56:02.525Z,0.92
2022-11-06T03:58:38.933Z,0.83
2022-11-06T04:01:10.625Z,0.86
2022-11-06T04:04:00.016Z,1.01
2022-11-06T04:06:32.743Z,0.96
2022-11-06T04:09:22.346Z,0.85
2022-11-06T04:12:09.456Z,0.90
2022-11-06T04:14:40.225Z,0.94
2022-11-06T04:17:12.342Z,0.92
2022-11-06T04:19:49.880Z,0.82
2022-11-06T04:22:32.635Z,0.97
2022-11-06T04:25:26.400Z,0.94
2022-11-06T04:28:26.118Z,0.87
2022-11-06T04:31:17.352Z,0.93
2022-11-06T04:34:02.917Z,0.93
2022-11-06T04:36:42.076Z,0.99
2022-11-06T04:39:28.993Z,1.00
2022-11-06T04:42:16.325Z,1.01
2022-11-06T04:44:50.722Z,0.96
2022-11-06T04:47:21.629Z,0.97
2022-11-06T04:49:52.315Z,0.91
2022-11-06T04:52:27.799Z,0.97
2022-11-06T04:54:57.938Z,0.90
2022-11-06T04:57:26.585Z,0.95
2022-11-06T04:59:54.562Z,0.91
2022-11-06T05:02:22.191Z,0.91
2022-11-06T05:04:49.778Z,0.90
2022-11-06T05:07:17.771Z,0.93
2022-11-06T05:09:45.891Z,0.98
2022-11-06T05:12:13.683Z,1.04
2022-11-06T05:14:41.168Z,1.06
2022-11-06T05:17:08.684Z,1.14
2022-11-06T05:19:36.174Z,1.15
2022-11-06T05:22:22.092Z,1.20
2022-11-06T05:24:49.587Z,1.23
2022-11-06T05:27:17.168Z,1.25
2022-11-06T05:29:44.682Z,1.30
2022-11-06T05:32:12.276Z,1.33
2022-11-06T05:34:39.804Z,1.32
2022-11-06T05:37:07.223Z,1.32
2022-11-06T05:39:39.005Z,1.30
2022-11-06T05:42:09.212Z,1.23
2022-11-06T05:44:37.827Z,1.27
2022-11-06T05:47:05.308Z,1.33
2022-11-06T05:49:32.970Z,1.32
2022-11-06T05:52:00.383Z,1.34
2022-11-06T05:54:27.937Z,1.38
2022-11-06T05:56:55.459Z,1.38
2022-11-06T05:59:22.980Z,1.44
2022-11-06T06:01:50.604Z,1.52
2022-11-06T06:04:18.309Z,1.55
2022-11-06T06:06:45.951Z,1.56
2022-11-06T06:09:13.419Z,1.55
2022-11-06T06:11:43.428Z,1.47
2022-11-06T06:14:11.018Z,1.34
2022-11-06T06:16:38.799Z,1.26
2022-11-06T06:19:06.262Z,1.25
2022-11-06T06:21:33.826Z,1.20
2022-11-06T06:24:01.327Z,1.18
2022-11-06T06:26:28.877Z,1.04
2022-11-06T06:28:56.336Z,1.01
2022-11-06T06:31:23.939Z,1.04
2022-11-06T06:33:51.380Z,0.97
2022-11-06T06:36:18.953Z,0.97
2022-11-06T06:38:46.497Z,1.00
2022-11-06T06:41:14.029Z,0.93
2022-11-06T06:43:41.663Z,0.97
2022-11-06T06:46:09.630Z,1.11
2022-11-06T06:48:37.251Z,1.17
2022-11-06T06:51:05.140Z,1.23
2022-11-06T06:53:32.608Z,1.27
2022-11-06T06:56:01.940Z,1.27
2022-11-06T06:58:30.139Z,1.27
2022-11-06T07:01:02.704Z,1.20
2022-11-06T07:03:30.434Z,1.20
2022-11-06T07:05:59.045Z,1.14
2022-11-06T07:08:27.839Z,1.17
2022-11-06T07:11:02.732Z,1.19
2022-11-06T07:13:35.468Z,1.17
2022-11-06T07:16:09.206Z,1.10
2022-11-06T07:18:38.154Z,0.97
2022-11-06T07:21:10.948Z,0.95
2022-11-06T07:23:38.994Z,0.96
2022-11-06T07:26:06.779Z,0.96
2022-11-06T07:28:34.592Z,1.07
2022-11-06T07:31:04.495Z,1.08
2022-11-06T07:33:32.417Z,1.16
2022-11-06T07:36:08.999Z,1.32
2022-11-06T07:38:38.154Z,1.43
2022-11-06T07:41:08.698Z,1.47
2022-11-06T07:43:36.784Z,1.55
2022-11-06T07:46:07.180Z,1.53
2022-11-06T07:48:34.970Z,1.45
2022-11-06T07:51:04.560Z,1.41
2022-11-06T07:53:32.737Z,1.35
2022-11-06T07:56:00.693Z,1.42
2022-11-06T07:58:28.610Z,1.44
2022-11-06T08:00:58.611Z,1.44
2022-11-06T08:03:27.267Z,1.47
2022-11-06T08:05:55.172Z,1.52
2022-11-06T08:08:23.147Z,1.58
2022-11-06T08:10:52.267Z,1.60
2022-11-06T08:13:19.887Z,1.57
2022-11-06T08:15:47.532Z,1.62
2022-11-06T08:18:15.476Z,1.63
2022-11-06T08:20:43.248Z,1.53
2022-11-06T08:23:13.286Z,1.58
2022-11-06T08:25:41.171Z,1.57
2022-11-06T08:28:09.978Z,1.62
2022-11-06T08:30:37.822Z,1.58
2022-11-06T08:33:08.142Z,1.60
2022-11-06T08:35:36.057Z,1.55
2022-11-06T08:38:04.474Z,1.55
2022-11-06T08:40:32.447Z,1.62
2022-11-06T08:43:05.151Z,1.72
2022-11-06T08:45:35.950Z,1.74
2022-11-06T08:48:04.350Z,1.80
2022-11-06T08:50:33.181Z,1.86
2022-11-06T08:53:04.371Z,1.89
2022-11-06T08:55:33.850Z,1.91
2022-11-06T08:58:01.723Z,1.90
2022-11-06T09:00:29.637Z,1.88
2022-11-06T09:03:02.185Z,1.96
2022-11-06T09:05:31.122Z,2.04
2022-11-06T09:07:59.542Z,2.02
2022-11-06T09:10:28.101Z,2.13
2022-11-06T09:12:58.638Z,2.12
2022-11-06T09:15:26.841Z,2.08
2022-11-06T09:17:54.962Z,2.10
2022-11-06T09:20:24.834Z,2.01
2022-11-06T09:22:52.857Z,2.01
2022-11-06T09:25:20.398Z,1.99
2022-11-06T09:27:58.763Z,1.99
2022-11-06T09:30:29.759Z,2.01
2022-11-06T09:32:59.848Z,2.00
2022-11-06T09:35:36.670Z,1.99
2022-11-06T09:38:06.183Z,1.95
2022-11-06T09:40:42.666Z,1.81
2022-11-06T09:46:26.327Z,1.99
2022-11-06T09:49:17.129Z,1.93
2022-11-06T09:52:16.844Z,1.93
2022-11-06T09:54:55.989Z,2.02
2022-11-06T09:58:05.799Z,2.16
2022-11-06T10:00:33.209Z,1.95
2022-11-06T10:03:12.723Z,1.97
2022-11-06T10:05:41.663Z,1.85
2022-11-06T10:08:22.422Z,1.81
2022-11-06T10:11:54.214Z,1.85
2022-11-06T10:14:30.261Z,1.66
2022-11-06T10:17:03.455Z,1.61
2022-11-06T10:19:30.891Z,1.64
2022-11-06T10:22:07.306Z,1.78
2022-11-06T10:24:53.271Z,1.82
2022-11-06T10:27:33.455Z,2.04
2022-11-06T10:30:21.240Z,1.99
2022-11-06T10:33:26.136Z,2.11
2022-11-06T10:36:09.943Z,2.13
2022-11-06T10:38:47.278Z,2.06
2022-11-06T10:41:23.835Z,2.00
2022-11-06T10:44:14.982Z,1.90
2022-11-06T10:46:52.046Z,1.90
2022-11-06T10:49:45.165Z,2.02
2022-11-06T10:52:33.866Z,2.19
2022-11-06T10:55:01.256Z,2.13
2022-11-06T10:57:43.876Z,2.16
2022-11-06T11:00:14.167Z,2.09
2022-11-06T11:02:48.690Z,2.00
2022-11-06T11:05:19.659Z,2.00
2022-11-06T11:07:51.627Z,2.01
2022-11-06T11:10:32.872Z,2.07
2022-11-06T11:13:07.076Z,1.95
2022-11-06T11:15:46.933Z,2.00
2022-11-06T11:18:34.378Z,2.05
2022-11-06T11:21:18.623Z,1.98
2022-11-06T11:24:04.162Z,1.88
2022-11-06T11:27:01.103Z,1.87
2022-11-06T11:29:45.360Z,2.00
2022-11-06T11:32:16.088Z,1.95
2022-11-06T11:34:51.358Z,2.07
2022-11-06T11:37:28.434Z,2.01
2022-11-06T11:40:16.354Z,1.82
2022-11-06T11:42:43.939Z,1.78
2022-11-06T11:45:14.866Z,1.82
2022-11-06T11:47:46.817Z,1.79
2022-11-06T11:50:20.616Z,1.84
2022-11-06T11:52:52.765Z,1.61
2022-11-06T11:55:26.756Z,1.66
2022-11-06T11:57:57.704Z,1.74
2022-11-06T12:00:26.192Z,1.73
2022-11-06T12:02:58.980Z,1.77
2022-11-06T12:05:35.059Z,1.68
2022-11-06T12:08:03.407Z,1.57
2022-11-06T12:10:33.863Z,1.48
2022-11-06T12:13:22.359Z,1.38
2022-11-06T12:16:07.011Z,1.38
2022-11-06T12:18:41.067Z,1.51
2022-11-06T12:21:22.172Z,1.31
2022-11-06T12:24:00.220Z,1.30
2022-11-06T12:26:37.549Z,1.23
2022-11-06T12:29:11.931Z,1.18
2022-11-06T12:31:59.594Z,1.17
2022-11-06T12:34:54.455Z,1.31
2022-11-06T12:37:40.359Z,1.35
2022-11-06T12:40:25.658Z,1.38
2022-11-06T12:43:07.102Z,1.42
2022-11-06T12:46:08.546Z,1.45
2022-11-06T12:48:48.095Z,1.49
2022-11-06T12:51:37.042Z,1.47
2022-11-06T12:54:41.451Z,1.45
2022-11-06T12:57:30.640Z,1.41
2022-11-06T13:00:21.179Z,1.42
2022-11-06T13:03:10.865Z,1.34
2022-11-06T13:05:47.567Z,1.30
2022-11-06T13:08:35.828Z,1.35
2022-11-06T13:11:09.590Z,1.37
2022-11-06T13:13:50.039Z,1.36
2022-11-06T13:16:28.261Z,1.29
2022-11-06T13:19:15.630Z,1.19
2022-11-06T13:21:52.278Z,1.26
2022-11-06T13:24:44.467Z,1.37
2022-11-06T13:27:38.528Z,1.29
2022-11-06T13:30:17.211Z,1.23
2022-11-06T13:33:10.122Z,1.20
2022-11-06T13:35:41.601Z,1.26
2022-11-06T13:38:16.873Z,1.22
2022-11-06T13:40:48.595Z,1.27
2022-11-06T13:43:29.690Z,1.28
2022-11-06T13:46:18.999Z,1.28
2022-11-06T13:49:08.153Z,1.22
2022-11-06T13:51:42.617Z,1.11
2022-11-06T13:54:15.210Z,1.10
2022-11-06T13:57:05.717Z,1.23
2022-11-06T13:59:39.144Z,1.17
2022-11-06T14:02:33.910Z,1.20
2022-11-06T14:05:04.081Z,1.12
2022-11-06T14:07:34.169Z,1.08
2022-11-06T14:10:02.139Z,1.09
2022-11-06T14:12:30.560Z,1.10
2022-11-06T14:15:19.331Z,1.26
2022-11-06T14:18:01.450Z,1.25
2022-11-06T14:20:29.250Z,1.25
2022-11-06T14:23:31.577Z,1.34
2022-11-06T14:26:11.496Z,1.32
2022-11-06T14:28:41.845Z,1.25
2022-11-06T14:31:14.022Z,1.29
2022-11-06T14:33:43.312Z,1.37
2022-11-06T14:36:25.874Z,1.32
2022-11-06T14:38:54.211Z,1.20
2022-11-06T14:41:36.689Z,1.27
2022-11-06T14:44:26.190Z,1.28
2022-11-06T14:46:59.988Z,1.28
2022-11-06T14:49:38.405Z,1.28
2022-11-06T14:52:15.849Z,1.31
2022-11-06T14:54:50.894Z,1.34
2022-11-06T14:57:35.820Z,1.39
2022-11-06T15:00:04.607Z,1.36
2022-11-06T15:02:34.796Z,1.30
2022-11-06T15:05:08.597Z,1.24
2022-11-06T15:08:10.657Z,1.33
2022-11-06T15:10:44.290Z,1.33
2022-11-06T15:13:18.026Z,1.28
2022-11-06T15:15:50.513Z,1.29
2022-11-06T15:18:22.875Z,1.31
2022-11-06T15:21:01.066Z,1.30
2022-11-06T15:23:31.386Z,1.44
2022-11-06T15:26:07.833Z,1.36
2022-11-06T15:28:46.603Z,1.43
2022-11-06T15:31:18.939Z,1.25
2022-11-06T15:34:24.955Z,1.35
2022-11-06T15:37:03.722Z,1.28
2022-11-06T15:39:38.138Z,1.30
2022-11-06T15:42:13.538Z,1.26
2022-11-06T15:44:42.394Z,1.30
2022-11-06T15:47:27.234Z,1.33
2022-11-06T15:50:17.002Z,1.44
2022-11-06T15:52:46.153Z,1.35
2022-11-06T15:55:28.707Z,1.44
2022-11-06T15:58:30.393Z,1.46
2022-11-06T16:01:03.178Z,1.41
2022-11-06T16:03:32.387Z,1.44
2022-11-06T16:06:03.503Z,1.47
2022-11-06T16:08:32.501Z,1.47
2022-11-06T16:11:01.374Z,1.44
2022-11-06T16:13:29.362Z,1.30
2022-11-06T16:15:59.419Z,1.16
2022-11-06T16:18:35.757Z,1.17
2022-11-06T16:21:19.355Z,1.22
2022-11-06T16:23:51.419Z,1.29
2022-11-06T16:26:32.682Z,1.37
2022-11-06T16:29:00.721Z,1.38
2022-11-06T16:31:30.921Z,1.35
2022-11-06T16:33:58.337Z,1.38
2022-11-06T16:36:28.227Z,1.31
2022-11-06T16:39:47.633Z,1.39
2022-11-06T16:42:22.617Z,1.37
2022-11-06T16:45:21.508Z,1.38
2022-11-06T16:48:07.218Z,1.42
2022-11-06T16:50:53.208Z,1.17
2022-11-06T16:53:29.608Z,1.13
2022-11-06T16:56:03.285Z,1.14
2022-11-06T16:58:34.898Z,1.16
2022-11-06T17:01:06.371Z,1.21
2022-11-06T17:03:40.855Z,1.19
2022-11-06T17:06:21.429Z,1.22
2022-11-06T17:09:09.904Z,1.20
2022-11-06T17:11:38.902Z,1.19
2022-11-06T17:14:18.556Z,1.26
2022-11-06T17:16:49.910Z,1.21
2022-11-06T17:19:19.403Z,1.21
2022-11-06T17:21:47.625Z,1.24
2022-11-06T17:27:02.650Z,1.26
2022-11-06T17:29:30.200Z,1.29
2022-11-06T17:31:57.708Z,1.31
2022-11-06T17:34:25.174Z,1.29
2022-11-06T17:36:52.845Z,1.34
2022-11-06T17:39:20.567Z,1.35
2022-11-06T17:41:48.169Z,1.33
2022-11-06T17:44:15.735Z,1.25
2022-11-06T17:46:47.971Z,1.31
2022-11-06T17:49:18.487Z,1.32
2022-11-06T17:51:52.942Z,1.25
2022-11-06T17:54:22.955Z,1.30
2022-11-06T17:56:51.563Z,1.29
2022-11-06T17:59:20.065Z,1.19
2022-11-06T18:01:51.020Z,1.20
2022-11-06T18:04:20.318Z,1.22
2022-11-06T18:06:49.523Z,1.28
2022-11-06T18:09:17.036Z,1.33
2022-11-06T18:11:44.729Z,1.33
2022-11-06T18:14:12.740Z,1.38
2022-11-06T18:16:43.984Z,1.35
2022-11-06T18:19:15.077Z,1.36
2022-11-06T18:21:42.685Z,1.41
2022-11-06T18:24:10.237Z,1.50
2022-11-06T18:26:37.876Z,1.52
2022-11-06T18:29:06.953Z,1.56
2022-11-06T18:31:35.584Z,1.47
2022-11-06T18:34:04.262Z,1.52
2022-11-06T18:36:33.412Z,1.48
2022-11-06T18:39:00.931Z,1.46
2022-11-06T18:41:29.962Z,1.48
2022-11-06T18:43:58.306Z,1.60
2022-11-06T18:46:30.003Z,1.72
2022-11-06T18:48:58.414Z,1.65
2022-11-06T18:51:35.495Z,1.63
2022-11-06T18:54:09.302Z,1.60
2022-11-06T18:56:38.700Z,1.70
2022-11-06T18:59:10.315Z,1.71
2022-11-06T19:01:38.167Z,1.65
2022-11-06T19:04:05.979Z,1.57
2022-11-06T19:06:33.594Z,1.65
2022-11-06T19:09:01.273Z,1.64
2022-11-06T19:11:28.776Z,1.60
2022-11-06T19:13:56.459Z,1.59
2022-11-06T19:16:24.134Z,1.59
2022-11-06T19:21:30.955Z,1.63
2022-11-06T19:24:04.664Z,1.72
2022-11-06T19:26:35.661Z,1.78
2022-11-06T19:29:05.945Z,1.70
2022-11-06T19:31:34.139Z,1.71
2022-11-06T19:34:05.442Z,1.67
2022-11-06T19:36:33.560Z,1.65
2022-11-06T19:39:01.750Z,1.73
2022-11-06T19:41:31.870Z,1.79
2022-11-06T19:43:59.499Z,1.77
2022-11-06T19:46:31.109Z,1.81
2022-11-06T19:49:04.419Z,1.79
2022-11-06T19:51:33.577Z,1.78
2022-11-06T19:54:05.910Z,1.80
2022-11-06T19:56:33.598Z,1.79
2022-11-06T19:59:02.135Z,1.87
2022-11-06T20:01:30.144Z,1.87
2022-11-06T20:03:57.769Z,1.88
2022-11-06T20:06:27.529Z,1.91
2022-11-06T20:08:55.263Z,1.93
2022-11-06T20:11:22.870Z,1.91
2022-11-06T20:13:50.388Z,2.00
2022-11-06T20:16:20.279Z,1.92
2022-11-06T20:18:53.031Z,2.02
2022-11-06T20:21:21.506Z,2.02
2022-11-06T20:23:49.641Z,1.90
2022-11-06T20:26:17.515Z,1.95
2022-11-06T20:28:47.551Z,1.95
2022-11-06T20:31:19.517Z,2.02
2022-11-06T20:33:47.846Z,2.03
2022-11-06T20:36:23.254Z,2.06
2022-11-06T20:38:56.678Z,2.05
2022-11-06T20:41:24.934Z,2.10
2022-11-06T20:43:53.512Z,2.12
2022-11-06T20:46:22.364Z,2.12
2022-11-06T20:48:50.359Z,2.14
2022-11-06T20:51:23.544Z,2.20
2022-11-06T20:53:51.229Z,2.11
2022-11-06T20:56:20.872Z,2.27
2022-11-06T20:58:48.581Z,2.21
2022-11-06T21:01:19.943Z,2.21
2022-11-06T21:03:50.006Z,2.20
2022-11-06T21:06:18.912Z,2.17
2022-11-06T21:08:47.289Z,2.20
2022-11-06T21:11:18.149Z,2.26
2022-11-06T21:13:48.520Z,2.28
2022-11-06T21:16:25.940Z,2.32
2022-11-06T21:18:54.099Z,2.28
2022-11-06T21:21:25.245Z,2.28
2022-11-06T21:23:54.019Z,2.28
2022-11-06T21:26:36.731Z,2.36
2022-11-06T21:29:07.074Z,2.32
2022-11-06T21:31:35.063Z,2.31
2022-11-06T21:34:04.242Z,2.25
2022-11-06T21:36:36.992Z,2.35
2022-11-06T21:39:10.652Z,2.29
2022-11-06T21:41:39.083Z,2.28
2022-11-06T21:44:07.728Z,2.28
2022-11-06T21:46:35.316Z,2.26
2022-11-06T21:49:02.768Z,2.19
2022-11-06T21:51:32.952Z,2.17
2022-11-06T21:54:19.108Z,2.20
2022-11-06T21:56:50.768Z,2.22
2022-11-06T21:59:24.924Z,2.32
2022-11-06T22:01:52.986Z,2.25
2022-11-06T22:04:21.027Z,2.27
2022-11-06T22:06:48.545Z,2.32
2022-11-06T22:09:19.545Z,2.39
2022-11-06T22:11:49.644Z,2.37
2022-11-06T22:14:17.458Z,2.31
2022-11-06T22:16:46.890Z,2.38
2022-11-06T22:19:17.671Z,2.35
2022-11-06T22:21:45.672Z,2.37
2022-11-06T22:24:13.858Z,2.37
2022-11-06T22:26:41.430Z,2.38
2022-11-06T22:29:13.685Z,2.41
2022-11-06T22:31:41.212Z,2.40
2022-11-06T22:34:10.763Z,2.42
2022-11-06T22:36:38.861Z,2.39
2022-11-06T22:39:09.020Z,2.36
2022-11-06T22:41:39.246Z,2.35
2022-11-06T22:44:07.633Z,2.42
2022-11-06T22:46:35.400Z,2.39
2022-11-06T22:49:04.408Z,2.28
2022-11-06T22:51:33.256Z,2.35
2022-11-06T22:54:02.157Z,2.34
2022-11-06T22:56:31.217Z,2.31
2022-11-06T22:59:05.515Z,2.29
2022-11-06T23:01:38.689Z,2.34
2022-11-06T23:04:15.012Z,2.30
2022-11-06T23:06:44.476Z,2.35
2022-11-06T23:09:12.537Z,2.32
2022-11-06T23:11:40.030Z,2.36
2022-11-06T23:14:09.169Z,2.32
2022-11-06T23:16:55.813Z,2.33
2022-11-06T23:19:24.470Z,2.37
2022-11-06T23:21:52.691Z,2.38
2022-11-06T23:24:20.137Z,2.34
2022-11-06T23:26:47.646Z,2.43
2022-11-06T23:29:15.256Z,2.48
2022-11-06T23:31:42.689Z,2.50
2022-11-06T23:34:10.228Z,2.40
2022-11-06T23:36:37.741Z,2.45
2022-11-06T23:39:05.524Z,2.45
2022-11-06T23:41:48.368Z,2.47
2022-11-06T23:44:34.362Z,2.40
2022-11-06T23:47:02.188Z,2.46
2022-11-06T23:49:30.058Z,2.55
2022-11-06T23:51:57.955Z,2.57
2022-11-06T23:54:25.805Z,2.53
2022-11-06T23:56:53.369Z,2.60
2022-11-06T23:59:21.142Z,2.64
